createdAt,value
2023-04-12T00:00:47.733Z,20.6
2023-04-12T00:02:46.667Z,20.5
2023-04-12T00:04:46.824Z,20.5
2023-04-12T00:06:46.515Z,20.4
2023-04-12T00:08:46.473Z,20.3
2023-04-12T00:10:46.604Z,20.2
2023-04-12T00:12:46.537Z,20.1
2023-04-12T00:14:47.725Z,20.1
2023-04-12T00:16:46.493Z,20
2023-04-12T00:18:46.687Z,19.9
2023-04-12T00:20:46.532Z,19.8
2023-04-12T00:22:46.723Z,19.8
2023-04-12T00:24:46.452Z,19.8
2023-04-12T00:26:46.805Z,19.7
2023-04-12T00:28:46.531Z,19.6
2023-04-12T00:30:46.538Z,19.6
2023-04-12T00:32:46.585Z,19.5
2023-04-12T00:34:46.450Z,19.5
2023-04-12T00:36:46.428Z,19.4
2023-04-12T00:38:46.532Z,19.4
2023-04-12T00:40:46.463Z,19.3
2023-04-12T00:42:46.451Z,19.3
2023-04-12T00:44:46.542Z,19.3
2023-04-12T00:46:46.482Z,19.2
2023-04-12T00:48:46.446Z,19.1
2023-04-12T00:50:46.453Z,19.1
2023-04-12T00:52:46.439Z,19
2023-04-12T00:54:46.438Z,19
2023-04-12T00:56:46.422Z,18.9
2023-04-12T00:58:46.533Z,18.9
2023-04-12T01:00:46.434Z,18.8
2023-04-12T01:02:46.535Z,18.7
2023-04-12T01:04:46.409Z,18.7
2023-04-12T01:06:47.325Z,18.7
2023-04-12T01:08:46.504Z,18.6
2023-04-12T01:10:46.418Z,18.6
2023-04-12T01:12:46.417Z,18.5
2023-04-12T01:14:46.516Z,18.5
2023-04-12T01:16:46.578Z,18.5
2023-04-12T01:18:46.475Z,18.4
2023-04-12T01:20:46.506Z,18.4
2023-04-12T01:22:46.491Z,18.3
2023-04-12T01:24:46.506Z,18.3
2023-04-12T01:26:46.397Z,18.3
2023-04-12T01:28:46.525Z,18.3
2023-04-12T01:30:46.484Z,18.2
2023-04-12T01:32:46.393Z,18.2
2023-04-12T01:34:46.480Z,18.2
2023-04-12T01:36:46.502Z,18.2
2023-04-12T01:38:46.388Z,18.1
2023-04-12T01:40:46.361Z,18.1
2023-04-12T01:42:46.377Z,18
2023-04-12T01:44:46.478Z,18
2023-04-12T01:46:46.477Z,18
2023-04-12T01:48:46.336Z,17.9
2023-04-12T01:50:46.348Z,17.9
2023-04-12T01:52:46.357Z,17.8
2023-04-12T01:54:46.465Z,17.8
2023-04-12T01:56:46.473Z,17.9
2023-04-12T01:58:47.508Z,17.8
2023-04-12T02:00:46.349Z,17.8
2023-04-12T02:02:46.597Z,17.7
2023-04-12T02:04:46.352Z,17.7
2023-04-12T02:06:46.345Z,17.7
2023-04-12T02:08:46.330Z,17.6
2023-04-12T02:10:46.325Z,17.6
2023-04-12T02:12:47.463Z,17.6
2023-04-12T02:14:46.972Z,17.6
2023-04-12T02:16:46.399Z,17.6
2023-04-12T02:18:46.321Z,17.5
2023-04-12T02:20:46.331Z,17.5
2023-04-12T02:22:46.323Z,17.4
2023-04-12T02:24:46.306Z,17.4
2023-04-12T02:26:46.323Z,17.4
2023-04-12T02:28:46.344Z,17.3
2023-04-12T02:30:46.387Z,17.3
2023-04-12T02:32:46.398Z,17.3
2023-04-12T02:34:46.311Z,17.3
2023-04-12T02:36:46.414Z,17.3
2023-04-12T02:38:46.386Z,17.2
2023-04-12T02:40:47.408Z,17.2
2023-04-12T02:42:46.303Z,17.2
2023-04-12T02:44:46.391Z,17.1
2023-04-12T02:46:46.304Z,17.2
2023-04-12T02:48:46.285Z,17.1
2023-04-12T02:50:46.297Z,17.1
2023-04-12T02:52:46.293Z,17
2023-04-12T02:54:46.290Z,17
2023-04-12T02:56:46.272Z,17.1
2023-04-12T02:58:46.284Z,17
2023-04-12T03:00:46.407Z,17
2023-04-12T03:02:46.350Z,17
2023-04-12T03:04:46.381Z,17
2023-04-12T03:06:46.260Z,17
2023-04-12T03:08:46.261Z,16.9
2023-04-12T03:10:46.256Z,16.9
2023-04-12T03:12:46.262Z,16.9
2023-04-12T03:14:46.261Z,16.8
2023-04-12T03:16:46.365Z,16.9
2023-04-12T03:18:46.243Z,16.9
2023-04-12T03:20:47.755Z,16.8
2023-04-12T03:22:46.333Z,16.8
2023-04-12T03:24:46.246Z,16.8
2023-04-12T03:26:46.249Z,16.8
2023-04-12T03:28:46.344Z,16.8
2023-04-12T03:30:46.276Z,16.7
2023-04-12T03:32:46.358Z,16.7
2023-04-12T03:34:46.329Z,16.7
2023-04-12T03:36:46.297Z,16.8
2023-04-12T03:38:46.323Z,16.7
2023-04-12T03:40:46.212Z,16.7
2023-04-12T03:42:46.327Z,16.7
2023-04-12T03:44:46.223Z,16.6
2023-04-12T03:46:46.249Z,16.7
2023-04-12T03:48:46.230Z,16.7
2023-04-12T03:50:47.858Z,16.6
2023-04-12T03:52:46.290Z,16.6
2023-04-12T03:54:46.271Z,16.6
2023-04-12T03:56:46.444Z,16.6
2023-04-12T03:58:46.307Z,16.6
2023-04-12T04:00:46.210Z,16.5
2023-04-12T04:02:46.358Z,16.5
2023-04-12T04:04:46.233Z,16.5
2023-04-12T04:06:46.281Z,16.5
2023-04-12T04:08:46.271Z,16.5
2023-04-12T04:10:46.195Z,16.4
2023-04-12T04:12:47.316Z,16.4
2023-04-12T04:14:46.175Z,16.4
2023-04-12T04:16:46.357Z,16.4
2023-04-12T04:18:46.176Z,16.4
2023-04-12T04:20:46.205Z,16.3
2023-04-12T04:22:46.268Z,16.3
2023-04-12T04:24:46.281Z,16.3
2023-04-12T04:26:46.162Z,16.4
2023-04-12T04:28:46.192Z,16.3
2023-04-12T04:30:46.172Z,16.3
2023-04-12T04:32:46.304Z,16.2
2023-04-12T04:34:46.153Z,16.2
2023-04-12T04:36:46.159Z,16.3
2023-04-12T04:38:46.178Z,16.2
2023-04-12T04:40:46.160Z,16.2
2023-04-12T04:42:46.162Z,16.2
2023-04-12T04:44:46.178Z,16.1
2023-04-12T04:46:46.145Z,16.2
2023-04-12T04:48:46.153Z,16.2
2023-04-12T04:50:46.155Z,16.1
2023-04-12T04:52:46.163Z,16.1
2023-04-12T04:54:46.193Z,16.1
2023-04-12T04:56:46.149Z,16.2
2023-04-12T04:58:46.158Z,16.1
2023-04-12T05:00:46.332Z,16.1
2023-04-12T05:02:46.597Z,16
2023-04-12T05:04:46.202Z,16
2023-04-12T05:06:46.324Z,16.1
2023-04-12T05:08:46.398Z,16
2023-04-12T05:10:46.548Z,16
2023-04-12T05:12:46.277Z,15.9
2023-04-12T05:14:49.743Z,15.9
2023-04-12T05:16:46.317Z,15.9
2023-04-12T05:18:46.421Z,15.9
2023-04-12T05:20:46.337Z,15.9
2023-04-12T05:22:46.236Z,15.8
2023-04-12T05:24:46.289Z,15.8
2023-04-12T05:26:46.305Z,15.9
2023-04-12T05:28:46.337Z,15.8
2023-04-12T05:30:46.301Z,15.8
2023-04-12T05:32:46.203Z,15.7
2023-04-12T05:34:46.350Z,15.7
2023-04-12T05:36:46.326Z,15.8
2023-04-12T05:38:46.273Z,15.7
2023-04-12T05:40:46.122Z,15.7
2023-04-12T05:42:46.198Z,15.7
2023-04-12T05:44:48.060Z,15.6
2023-04-12T05:46:46.177Z,15.7
2023-04-12T05:48:46.461Z,15.6
2023-04-12T05:50:46.373Z,15.6
2023-04-12T05:52:46.393Z,15.6
2023-04-12T05:54:46.288Z,15.5
2023-04-12T05:56:46.386Z,15.6
2023-04-12T05:58:46.327Z,15.5
2023-04-12T06:00:46.318Z,15.5
2023-04-12T06:02:46.620Z,15.5
2023-04-12T06:04:49.971Z,15.4
2023-04-12T06:06:46.244Z,15.5
2023-04-12T06:08:46.185Z,15.4
2023-04-12T06:10:46.297Z,15.4
2023-04-12T06:12:46.222Z,15.4
2023-04-12T06:14:46.287Z,15.4
2023-04-12T06:16:46.335Z,15.4
2023-04-12T06:18:46.202Z,15.4
2023-04-12T06:20:46.307Z,15.4
2023-04-12T06:22:46.368Z,15.3
2023-04-12T06:24:46.313Z,15.3
2023-04-12T06:26:46.272Z,15.4
2023-04-12T06:28:46.354Z,15.4
2023-04-12T06:30:46.325Z,15.4
2023-04-12T06:32:46.343Z,15.3
2023-04-12T06:34:46.271Z,15.3
2023-04-12T06:36:46.404Z,15.4
2023-04-12T06:38:46.278Z,15.3
2023-04-12T06:40:46.362Z,15.4
2023-04-12T06:42:46.406Z,15.3
2023-04-12T06:44:46.302Z,15.3
2023-04-12T06:46:46.438Z,15.4
2023-04-12T06:48:46.304Z,15.3
2023-04-12T06:50:46.337Z,15.3
2023-04-12T06:52:46.270Z,15.3
2023-04-12T06:54:46.308Z,15.3
2023-04-12T06:56:46.217Z,15.3
2023-04-12T06:58:46.375Z,15.3
2023-04-12T07:00:46.282Z,15.3
2023-04-12T07:02:46.304Z,15.3
2023-04-12T07:04:46.212Z,15.3
2023-04-12T07:06:46.255Z,15.3
2023-04-12T07:08:46.289Z,15.3
2023-04-12T07:10:46.220Z,15.2
2023-04-12T07:12:46.246Z,15.3
2023-04-12T07:14:46.431Z,15.3
2023-04-12T07:16:46.206Z,15.3
2023-04-12T07:18:46.168Z,15.3
2023-04-12T07:20:46.323Z,15.2
2023-04-12T07:22:46.123Z,15.2
2023-04-12T07:24:46.255Z,15.2
2023-04-12T07:26:46.201Z,15.3
2023-04-12T07:28:46.276Z,15.3
2023-04-12T07:30:46.218Z,15.2
2023-04-12T07:32:46.288Z,15.2
2023-04-12T07:34:46.231Z,15.2
2023-04-12T07:36:46.211Z,15.2
2023-04-12T07:38:46.249Z,15.2
2023-04-12T07:40:49.216Z,15.2
2023-04-12T07:42:46.205Z,15.2
2023-04-12T07:44:46.249Z,15.1
2023-04-12T07:46:46.204Z,15.2
2023-04-12T07:48:46.233Z,15.2
2023-04-12T07:50:46.182Z,15.2
2023-04-12T07:52:46.187Z,15.2
2023-04-12T07:54:46.231Z,15.1
2023-04-12T07:56:46.183Z,15.2
2023-04-12T07:58:46.211Z,15.1
2023-04-12T08:00:46.169Z,15.1
2023-04-12T08:02:46.251Z,15.1
2023-04-12T08:04:46.074Z,15.1
2023-04-12T08:06:46.166Z,15.1
2023-04-12T08:08:46.164Z,15.1
2023-04-12T08:10:46.153Z,15.1
2023-04-12T08:12:46.224Z,15
2023-04-12T08:14:46.267Z,15
2023-04-12T08:16:46.258Z,15
2023-04-12T08:18:46.231Z,15
2023-04-12T08:20:46.171Z,15
2023-04-12T08:22:46.190Z,14.9
2023-04-12T08:24:46.200Z,14.9
2023-04-12T08:26:46.165Z,15
2023-04-12T08:28:46.141Z,14.9
2023-04-12T08:30:46.180Z,14.9
2023-04-12T08:32:46.181Z,14.9
2023-04-12T08:34:46.242Z,14.9
2023-04-12T08:36:47.352Z,15
2023-04-12T08:38:46.694Z,15
2023-04-12T08:40:46.177Z,14.9
2023-04-12T08:42:46.200Z,14.9
2023-04-12T08:44:46.129Z,14.9
2023-04-12T08:46:46.148Z,14.9
2023-04-12T08:48:46.209Z,14.9
2023-04-12T08:50:46.143Z,14.9
2023-04-12T08:52:46.158Z,14.8
2023-04-12T08:54:46.092Z,14.8
2023-04-12T08:56:46.201Z,14.9
2023-04-12T08:58:46.107Z,14.9
2023-04-12T09:00:46.177Z,14.8
2023-04-12T09:02:46.239Z,14.8
2023-04-12T09:04:46.233Z,14.8
2023-04-12T09:06:46.114Z,14.9
2023-04-12T09:08:46.160Z,14.9
2023-04-12T09:10:46.101Z,14.9
2023-04-12T09:12:46.071Z,14.8
2023-04-12T09:14:45.999Z,14.8
2023-04-12T09:16:46.165Z,14.9
2023-04-12T09:18:45.976Z,14.8
2023-04-12T09:20:46.046Z,14.8
2023-04-12T09:22:46.333Z,14.8
2023-04-12T09:24:46.111Z,14.8
2023-04-12T09:26:46.110Z,14.8
2023-04-12T09:28:46.215Z,14.8
2023-04-12T09:30:46.076Z,14.8
2023-04-12T09:32:46.049Z,14.8
2023-04-12T09:34:46.029Z,14.7
2023-04-12T09:36:45.970Z,14.8
2023-04-12T09:38:45.957Z,14.7
2023-04-12T09:40:45.938Z,14.7
2023-04-12T09:42:46.082Z,14.7
2023-04-12T09:44:45.947Z,14.6
2023-04-12T09:46:48.119Z,14.7
2023-04-12T09:48:46.030Z,14.6
2023-04-12T09:50:45.940Z,14.6
2023-04-12T09:52:45.960Z,14.6
2023-04-12T09:54:46.054Z,14.6
2023-04-12T09:56:45.926Z,14.6
2023-04-12T09:58:45.959Z,14.6
2023-04-12T10:00:46.043Z,14.5
2023-04-12T10:02:46.823Z,14.5
2023-04-12T10:04:46.089Z,14.5
2023-04-12T10:06:45.986Z,14.6
2023-04-12T10:08:46.085Z,14.5
2023-04-12T10:10:45.922Z,14.5
2023-04-12T10:12:45.985Z,14.5
2023-04-12T10:14:46.049Z,14.4
2023-04-12T10:16:46.189Z,14.5
2023-04-12T10:18:46.059Z,14.4
2023-04-12T10:20:45.927Z,14.4
2023-04-12T10:22:45.950Z,14.4
2023-04-12T10:24:46.049Z,14.4
2023-04-12T10:26:45.924Z,14.4
2023-04-12T10:28:45.976Z,14.4
2023-04-12T10:30:45.916Z,14.3
2023-04-12T10:32:46.011Z,14.3
2023-04-12T10:34:45.969Z,14.3
2023-04-12T10:36:45.939Z,14.3
2023-04-12T10:38:45.899Z,14.3
2023-04-12T10:40:45.893Z,14.3
2023-04-12T10:42:45.979Z,14.2
2023-04-12T10:44:45.934Z,14.2
2023-04-12T10:46:46.039Z,14.3
2023-04-12T10:48:45.818Z,14.3
2023-04-12T10:50:45.868Z,14.2
2023-04-12T10:52:45.839Z,14.2
2023-04-12T10:54:45.902Z,14.2
2023-04-12T10:56:45.826Z,14.3
2023-04-12T10:58:45.818Z,14.3
2023-04-12T11:00:45.889Z,14.3
2023-04-12T11:02:45.942Z,14.3
2023-04-12T11:04:45.817Z,14.3
2023-04-12T11:06:45.752Z,14.4
2023-04-12T11:08:45.686Z,14.3
2023-04-12T11:10:45.715Z,14.3
2023-04-12T11:12:45.749Z,14.3
2023-04-12T11:14:45.798Z,14.3
2023-04-12T11:16:45.747Z,14.3
2023-04-12T11:18:45.745Z,14.3
2023-04-12T11:20:45.682Z,14.3
2023-04-12T11:22:45.728Z,14.3
2023-04-12T11:24:45.747Z,14.3
2023-04-12T11:26:45.674Z,14.4
2023-04-12T11:28:45.680Z,14.4
2023-04-12T11:30:45.780Z,14.4
2023-04-12T11:32:45.732Z,14.4
2023-04-12T11:34:45.733Z,14.4
2023-04-12T11:36:56.106Z,14.6
2023-04-12T11:38:45.693Z,14.5
2023-04-12T11:40:45.686Z,14.5
2023-04-12T11:42:45.674Z,14.6
2023-04-12T11:44:54.962Z,14.6
2023-04-12T11:46:45.646Z,14.7
2023-04-12T11:48:45.664Z,14.7
2023-04-12T11:50:47.177Z,14.7
2023-04-12T11:52:45.653Z,14.8
2023-04-12T11:54:45.675Z,14.8
2023-04-12T11:56:45.707Z,14.9
2023-04-12T11:58:45.692Z,14.9
2023-04-12T12:00:45.643Z,14.9
2023-04-12T12:02:52.495Z,15
2023-04-12T12:04:45.836Z,15
2023-04-12T12:06:45.839Z,15.1
2023-04-12T12:08:45.626Z,15.1
2023-04-12T12:11:00.410Z,15.1
2023-04-12T12:12:45.643Z,15.1
2023-04-12T12:14:45.646Z,15.2
2023-04-12T12:16:45.626Z,15.3
2023-04-12T12:18:45.657Z,15.4
2023-04-12T12:20:45.717Z,15.4
2023-04-12T12:22:45.598Z,15.5
2023-04-12T12:24:45.621Z,15.5
2023-04-12T12:26:45.592Z,15.6
2023-04-12T12:28:45.607Z,15.6
2023-04-12T12:30:45.637Z,15.7
2023-04-12T12:32:45.657Z,15.8
2023-04-12T12:34:45.665Z,16
2023-04-12T12:36:45.605Z,16.2
2023-04-12T12:38:45.684Z,16.3
2023-04-12T12:40:45.624Z,16.6
2023-04-12T12:42:45.609Z,16.8
2023-04-12T12:44:45.586Z,16.9
2023-04-12T12:46:53.922Z,17.1
2023-04-12T12:48:45.608Z,17.3
2023-04-12T12:50:45.618Z,17.3
2023-04-12T12:52:45.618Z,17.6
2023-04-12T12:54:45.605Z,17.8
2023-04-12T12:56:45.642Z,18.2
2023-04-12T12:58:45.552Z,18.5
2023-04-12T13:00:45.563Z,18.8
2023-04-12T13:02:45.725Z,18.9
2023-04-12T13:04:45.631Z,19
2023-04-12T13:06:45.560Z,19.2
2023-04-12T13:08:45.576Z,19.2
2023-04-12T13:10:45.571Z,19.2
2023-04-12T13:12:45.558Z,19.2
2023-04-12T13:14:45.559Z,19.4
2023-04-12T13:16:45.613Z,19.5
2023-04-12T13:18:45.693Z,19.5
2023-04-12T13:20:45.655Z,19.6
2023-04-12T13:22:45.551Z,19.6
2023-04-12T13:24:45.542Z,19.7
2023-04-12T13:26:45.542Z,19.8
2023-04-12T13:28:45.529Z,19.7
2023-04-12T13:30:45.548Z,19.6
2023-04-12T13:32:45.696Z,19.6
2023-04-12T13:34:45.526Z,19.6
2023-04-12T13:36:45.550Z,19.7
2023-04-12T13:38:45.541Z,19.7
2023-04-12T13:40:45.568Z,19.8
2023-04-12T13:42:45.504Z,19.9
2023-04-12T13:44:45.514Z,19.9
2023-04-12T13:46:45.506Z,20.1
2023-04-12T13:48:45.514Z,20.1
2023-04-12T13:50:46.186Z,20.1
2023-04-12T13:52:45.512Z,20.2
2023-04-12T13:54:45.500Z,20.3
2023-04-12T13:56:45.549Z,20.5
2023-04-12T13:58:45.516Z,20.5
2023-04-12T14:00:45.512Z,20.6
2023-04-12T14:02:45.567Z,20.8
2023-04-12T14:04:45.507Z,20.9
2023-04-12T14:06:45.514Z,21.2
2023-04-12T14:08:46.484Z,21.2
2023-04-12T14:10:45.502Z,21.3
2023-04-12T14:12:45.502Z,21.4
2023-04-12T14:14:45.481Z,21.4
2023-04-12T14:16:45.471Z,21.7
2023-04-12T14:18:45.514Z,21.7
2023-04-12T14:20:45.485Z,21.9
2023-04-12T14:22:45.462Z,22
2023-04-12T14:24:45.494Z,21.9
2023-04-12T14:26:45.468Z,22
2023-04-12T14:28:45.467Z,22
2023-04-12T14:30:45.492Z,22
2023-04-12T14:32:47.237Z,22
2023-04-12T14:34:45.493Z,22.2
2023-04-12T14:36:45.409Z,22.2
2023-04-12T14:38:45.469Z,22.3
2023-04-12T14:40:45.475Z,22.3
2023-04-12T14:42:45.489Z,22.4
2023-04-12T14:44:45.488Z,22.4
2023-04-12T14:46:45.441Z,22.6
2023-04-12T14:48:45.475Z,22.5
2023-04-12T14:50:45.460Z,22.6
2023-04-12T14:52:45.514Z,22.7
2023-04-12T14:54:45.456Z,22.7
2023-04-12T14:56:51.403Z,23
2023-04-12T14:58:45.551Z,23
2023-04-12T15:00:45.927Z,22.9
2023-04-12T15:02:45.563Z,23
2023-04-12T15:04:45.543Z,23
2023-04-12T15:06:45.395Z,23.2
2023-04-12T15:08:45.428Z,23.2
2023-04-12T15:10:45.423Z,23.2
2023-04-12T15:12:45.421Z,23.4
2023-04-12T15:14:45.583Z,23.4
2023-04-12T15:16:45.451Z,23.6
2023-04-12T15:18:45.394Z,23.6
2023-04-12T15:20:45.419Z,23.7
2023-04-12T15:22:45.398Z,23.7
2023-04-12T15:24:45.434Z,23.9
2023-04-12T15:26:45.420Z,24
2023-04-12T15:28:45.383Z,24.2
2023-04-12T15:30:45.396Z,24.3
2023-04-12T15:32:45.428Z,24.4
2023-04-12T15:34:45.410Z,24.3
2023-04-12T15:36:45.381Z,24.5
2023-04-12T15:38:45.410Z,24.7
2023-04-12T15:40:45.416Z,24.8
2023-04-12T15:42:45.418Z,24.8
2023-04-12T15:44:46.241Z,24.8
2023-04-12T15:46:50.904Z,25
2023-04-12T15:48:45.366Z,24.9
2023-04-12T15:50:45.363Z,24.9
2023-04-12T15:52:45.352Z,24.9
2023-04-12T15:54:45.409Z,24.9
2023-04-12T15:56:45.416Z,25
2023-04-12T15:58:45.384Z,25.1
2023-04-12T16:00:45.365Z,25.2
2023-04-12T16:02:45.558Z,25.2
2023-04-12T16:04:45.482Z,25.2
2023-04-12T16:06:45.377Z,25.4
2023-04-12T16:08:46.773Z,25.5
2023-04-12T16:10:45.378Z,25.6
2023-04-12T16:12:45.376Z,25.6
2023-04-12T16:14:45.361Z,25.8
2023-04-12T16:16:45.636Z,25.9
2023-04-12T16:18:45.371Z,26
2023-04-12T16:20:45.418Z,26
2023-04-12T16:22:45.328Z,26.1
2023-04-12T16:24:45.346Z,26.2
2023-04-12T16:26:45.347Z,26.3
2023-04-12T16:28:45.360Z,26.4
2023-04-12T16:30:45.366Z,26.4
2023-04-12T16:32:45.349Z,26.4
2023-04-12T16:34:45.350Z,26.3
2023-04-12T16:36:45.323Z,26.4
2023-04-12T16:38:45.316Z,26.4
2023-04-12T16:40:45.323Z,26.6
2023-04-12T16:42:45.371Z,26.6
2023-04-12T16:44:45.319Z,26.7
2023-04-12T16:46:45.393Z,26.8
2023-04-12T16:48:45.353Z,26.7
2023-04-12T16:50:45.353Z,26.7
2023-04-12T16:52:45.361Z,26.7
2023-04-12T16:54:45.339Z,26.8
2023-04-12T16:56:45.342Z,26.8
2023-04-12T16:58:45.347Z,26.9
2023-04-12T17:00:45.279Z,26.9
2023-04-12T17:02:45.559Z,26.9
2023-04-12T17:04:45.339Z,26.9
2023-04-12T17:06:45.297Z,27
2023-04-12T17:08:45.280Z,27.2
2023-04-12T17:10:45.295Z,27.2
2023-04-12T17:12:45.314Z,27.2
2023-04-12T17:14:45.295Z,27.3
2023-04-12T17:16:45.311Z,27.3
2023-04-12T17:18:45.373Z,27.3
2023-04-12T17:20:45.269Z,27.4
2023-04-12T17:22:45.337Z,27.5
2023-04-12T17:24:45.272Z,27.4
2023-04-12T17:26:45.326Z,27.4
2023-04-12T17:28:45.372Z,27.6
2023-04-12T17:30:45.252Z,27.6
2023-04-12T17:32:45.311Z,27.5
2023-04-12T17:34:45.250Z,27.5
2023-04-12T17:36:45.275Z,27.6
2023-04-12T17:38:45.295Z,27.7
2023-04-12T17:40:45.308Z,27.6
2023-04-12T17:42:45.284Z,27.6
2023-04-12T17:44:45.264Z,27.7
2023-04-12T17:46:45.256Z,27.7
2023-04-12T17:48:45.285Z,27.8
2023-04-12T17:50:45.283Z,27.8
2023-04-12T17:52:45.280Z,27.8
2023-04-12T17:54:45.264Z,27.7
2023-04-12T17:56:45.260Z,27.8
2023-04-12T17:58:45.236Z,27.9
2023-04-12T18:00:45.294Z,27.9
2023-04-12T18:02:45.396Z,27.9
2023-04-12T18:04:45.277Z,27.9
2023-04-12T18:06:45.255Z,27.9
2023-04-12T18:08:45.345Z,28
2023-04-12T18:10:45.213Z,28
2023-04-12T18:12:45.376Z,28.1
2023-04-12T18:14:45.249Z,28.1
2023-04-12T18:16:45.240Z,28.1
2023-04-12T18:18:45.238Z,28.2
2023-04-12T18:20:45.244Z,28.1
2023-04-12T18:22:46.762Z,28.2
2023-04-12T18:24:45.220Z,28.1
2023-04-12T18:26:45.310Z,28.2
2023-04-12T18:28:45.221Z,28.3
2023-04-12T18:30:48.906Z,28.3
2023-04-12T18:32:45.271Z,28.2
2023-04-12T18:34:45.238Z,28.3
2023-04-12T18:36:45.203Z,28.2
2023-04-12T18:38:45.190Z,28.4
2023-04-12T18:40:45.225Z,28.4
2023-04-12T18:42:45.224Z,28.4
2023-04-12T18:44:45.190Z,28.4
2023-04-12T18:46:45.273Z,28.4
2023-04-12T18:48:45.204Z,28.5
2023-04-12T18:50:45.197Z,28.5
2023-04-12T18:52:45.186Z,28.5
2023-04-12T18:54:45.198Z,28.6
2023-04-12T18:56:45.169Z,28.6
2023-04-12T18:58:54.291Z,28.7
2023-04-12T19:00:45.243Z,28.6
2023-04-12T19:02:45.229Z,28.6
2023-04-12T19:04:45.189Z,28.6
2023-04-12T19:06:45.229Z,28.6
2023-04-12T19:08:45.176Z,28.8
2023-04-12T19:10:45.209Z,28.9
2023-04-12T19:12:45.238Z,28.8
2023-04-12T19:14:45.185Z,28.7
2023-04-12T19:16:45.187Z,28.7
2023-04-12T19:18:45.220Z,28.8
2023-04-12T19:20:45.145Z,28.7
2023-04-12T19:22:45.156Z,28.7
2023-04-12T19:24:45.165Z,28.8
2023-04-12T19:26:45.193Z,28.7
2023-04-12T19:28:45.162Z,28.8
2023-04-12T19:30:45.136Z,28.7
2023-04-12T19:32:45.166Z,28.8
2023-04-12T19:34:45.156Z,28.7
2023-04-12T19:36:45.157Z,28.8
2023-04-12T19:38:49.934Z,28.8
2023-04-12T19:40:45.157Z,28.8
2023-04-12T19:42:45.134Z,28.8
2023-04-12T19:44:45.198Z,28.9
2023-04-12T19:46:45.202Z,29
2023-04-12T19:48:45.164Z,28.9
2023-04-12T19:50:46.638Z,28.9
2023-04-12T19:52:45.130Z,28.9
2023-04-12T19:54:45.133Z,28.9
2023-04-12T19:56:45.112Z,28.9
2023-04-12T19:58:45.173Z,28.9
2023-04-12T20:00:45.177Z,28.9
2023-04-12T20:02:45.144Z,29
2023-04-12T20:04:45.149Z,28.9
2023-04-12T20:06:45.107Z,28.8
2023-04-12T20:08:45.138Z,28.8
2023-04-12T20:10:45.154Z,28.9
2023-04-12T20:12:45.079Z,29
2023-04-12T20:14:45.132Z,29.1
2023-04-12T20:16:45.354Z,29
2023-04-12T20:18:45.103Z,29
2023-04-12T20:20:45.105Z,28.9
2023-04-12T20:22:45.140Z,28.8
2023-04-12T20:24:45.161Z,28.8
2023-04-12T20:26:45.177Z,28.8
2023-04-12T20:28:45.087Z,29
2023-04-12T20:30:45.126Z,28.9
2023-04-12T20:32:45.315Z,29
2023-04-12T20:34:45.074Z,28.9
2023-04-12T20:36:45.127Z,28.9
2023-04-12T20:38:45.075Z,29
2023-04-12T20:40:45.072Z,28.9
2023-04-12T20:42:45.081Z,29
2023-04-12T20:44:45.091Z,29
2023-04-12T20:46:45.130Z,29
2023-04-12T20:48:45.084Z,29.1
2023-04-12T20:50:45.090Z,29.1
2023-04-12T20:52:45.110Z,29.1
2023-04-12T20:54:45.132Z,29
2023-04-12T20:56:45.047Z,28.9
2023-04-12T20:58:45.063Z,29
2023-04-12T21:00:45.126Z,28.9
2023-04-12T21:02:45.285Z,28.8
2023-04-12T21:04:45.210Z,28.8
2023-04-12T21:06:45.125Z,28.7
2023-04-12T21:08:45.070Z,28.7
2023-04-12T21:10:45.059Z,28.8
2023-04-12T21:14:45.048Z,28.8
2023-04-12T21:16:45.026Z,28.8
2023-04-12T21:18:45.030Z,28.9
2023-04-12T21:20:45.040Z,28.9
2023-04-12T21:22:45.187Z,28.9
2023-04-12T21:24:45.005Z,28.9
2023-04-12T21:26:45.061Z,28.8
2023-04-12T21:28:45.061Z,28.8
2023-04-12T21:30:45.024Z,28.7
2023-04-12T21:32:45.074Z,28.8
2023-04-12T21:34:45.088Z,28.7
2023-04-12T21:36:45.030Z,28.6
2023-04-12T21:38:45.050Z,28.7
2023-04-12T21:40:45.023Z,28.7
2023-04-12T21:42:45.007Z,28.8
2023-04-12T21:44:45.003Z,28.7
2023-04-12T21:46:45.011Z,28.7
2023-04-12T21:48:44.995Z,28.7
2023-04-12T21:50:45.012Z,28.6
2023-04-12T21:52:45.030Z,28.5
2023-04-12T21:54:44.986Z,28.5
2023-04-12T21:56:44.982Z,28.5
2023-04-12T21:58:44.979Z,28.6
2023-04-12T22:00:44.993Z,28.5
2023-04-12T22:02:45.095Z,28.4
2023-04-12T22:04:44.970Z,28.4
2023-04-12T22:06:44.999Z,28.4
2023-04-12T22:08:45.061Z,28.6
2023-04-12T22:10:44.999Z,28.4
2023-04-12T22:12:45.003Z,28.3
2023-04-12T22:14:45.205Z,28.3
2023-04-12T22:16:45.072Z,28.2
2023-04-12T22:18:44.993Z,28.3
2023-04-12T22:20:44.964Z,28.2
2023-04-12T22:22:44.979Z,28.1
2023-04-12T22:24:44.995Z,28
2023-04-12T22:26:44.980Z,28
2023-04-12T22:28:44.952Z,28
2023-04-12T22:30:45.011Z,27.9
2023-04-12T22:32:44.957Z,27.9
2023-04-12T22:34:45.811Z,27.8
2023-04-12T22:36:45.014Z,27.7
2023-04-12T22:38:44.957Z,27.8
2023-04-12T22:40:44.957Z,27.7
2023-04-12T22:42:44.986Z,27.6
2023-04-12T22:44:44.968Z,27.5
2023-04-12T22:46:44.970Z,27.5
2023-04-12T22:48:44.943Z,27.5
2023-04-12T22:50:44.932Z,27.4
2023-04-12T22:52:44.988Z,27.4
2023-04-12T22:54:44.981Z,27.3
2023-04-12T22:56:44.919Z,27.3
2023-04-12T22:58:44.924Z,27.3
2023-04-12T23:00:44.978Z,27.2
2023-04-12T23:02:45.025Z,27.1
2023-04-12T23:04:44.954Z,27
2023-04-12T23:06:44.930Z,26.9
2023-04-12T23:08:44.919Z,26.9
2023-04-12T23:10:44.927Z,26.7
2023-04-12T23:12:44.954Z,26.6
2023-04-12T23:14:44.907Z,26.6
2023-04-12T23:16:44.919Z,26.5
2023-04-12T23:18:44.927Z,26.5
2023-04-12T23:20:44.955Z,26.4
2023-04-12T23:22:55.641Z,26.3
2023-04-12T23:24:44.920Z,26.2
2023-04-12T23:26:44.924Z,26.1
2023-04-12T23:28:44.884Z,26.1
2023-04-12T23:30:44.898Z,25.9
2023-04-12T23:32:44.973Z,25.8
2023-04-12T23:34:44.884Z,25.7
2023-04-12T23:36:44.902Z,25.6
2023-04-12T23:38:44.903Z,25.6
2023-04-12T23:40:44.874Z,25.4
2023-04-12T23:42:44.883Z,25.3
2023-04-12T23:44:44.908Z,25.2
2023-04-12T23:46:44.928Z,25.1
2023-04-12T23:48:44.931Z,25
2023-04-12T23:50:44.862Z,24.9
2023-04-12T23:52:44.871Z,24.8
2023-04-12T23:54:44.901Z,24.7
2023-04-12T23:56:44.891Z,24.5
2023-04-12T23:58:44.893Z,24.5
